createdAt,value
2018-08-09T00:00:19.545Z,3.53
2018-08-09T00:02:49.009Z,5.00
2018-08-09T00:05:18.474Z,5.00
2018-08-09T00:08:50.892Z,3.30
2018-08-09T00:11:20.346Z,4.33
2018-08-09T00:13:49.754Z,3.73
2018-08-09T00:16:19.186Z,3.80
2018-08-09T00:18:48.432Z,3.60
2018-08-09T00:21:17.719Z,3.40
2018-08-09T00:23:47.414Z,3.97
2018-08-09T00:26:17.026Z,3.50
2018-08-09T00:28:46.590Z,3.97
2018-08-09T00:31:17.030Z,3.93
2018-08-09T00:33:46.509Z,3.13
2018-08-09T00:36:15.778Z,3.80
2018-08-09T00:38:45.079Z,3.17
2018-08-09T00:41:14.394Z,4.00
2018-08-09T00:43:43.909Z,3.37
2018-08-09T00:46:13.309Z,4.00
2018-08-09T00:48:42.552Z,4.50
2018-08-09T00:51:11.760Z,4.03
2018-08-09T00:53:41.142Z,3.70
2018-08-09T00:56:10.430Z,3.93
2018-08-09T00:58:39.636Z,4.10
2018-08-09T01:01:09.630Z,3.33
2018-08-09T01:03:38.921Z,3.37
2018-08-09T01:06:08.149Z,3.30
2018-08-09T01:08:38.009Z,4.03
2018-08-09T01:11:07.641Z,3.47
2018-08-09T01:13:36.913Z,3.43
2018-08-09T01:16:06.171Z,3.27
2018-08-09T01:18:35.514Z,3.90
2018-08-09T01:21:04.888Z,3.83
2018-08-09T01:23:34.405Z,3.10
2018-08-09T01:26:03.703Z,4.40
2018-08-09T01:28:32.924Z,4.90
2018-08-09T01:31:02.779Z,3.03
2018-08-09T01:33:32.243Z,3.10
2018-08-09T01:36:01.541Z,6.00
2018-08-09T01:38:30.932Z,4.20
2018-08-09T01:41:00.306Z,3.50
2018-08-09T01:43:41.178Z,3.40
2018-08-09T01:46:10.525Z,3.40
2018-08-09T01:48:39.720Z,3.40
2018-08-09T01:51:09.596Z,3.63
2018-08-09T01:53:38.841Z,2.73
2018-08-09T01:56:08.057Z,3.33
2018-08-09T01:58:37.382Z,3.20
2018-08-09T02:01:06.657Z,3.07
2018-08-09T02:03:35.882Z,3.30
2018-08-09T02:06:05.980Z,3.40
2018-08-09T02:08:35.306Z,3.10
2018-08-09T02:11:04.501Z,3.33
2018-08-09T02:13:33.778Z,3.53
2018-08-09T02:16:03.144Z,4.13
2018-08-09T02:18:32.460Z,2.97
2018-08-09T02:21:02.153Z,3.60
2018-08-09T02:23:31.397Z,3.70
2018-08-09T02:26:00.907Z,3.47
2018-08-09T02:28:30.401Z,3.13
2018-08-09T02:31:00.072Z,4.20
2018-08-09T02:33:29.530Z,4.23
2018-08-09T02:35:58.998Z,3.80
2018-08-09T02:38:28.359Z,3.63
2018-08-09T02:40:57.794Z,3.50
2018-08-09T02:43:27.918Z,4.70
2018-08-09T02:45:57.219Z,3.97
2018-08-09T02:48:26.827Z,3.47
2018-08-09T02:50:56.357Z,4.20
2018-08-09T02:53:25.903Z,4.00
2018-08-09T02:55:55.462Z,3.20
2018-08-09T02:58:25.637Z,4.00
2018-08-09T03:00:55.017Z,3.73
2018-08-09T03:03:24.524Z,4.00
2018-08-09T03:05:54.850Z,3.50
2018-08-09T03:08:24.725Z,5.03
2018-08-09T03:10:54.173Z,3.80
2018-08-09T03:13:23.734Z,5.30
2018-08-09T03:15:53.077Z,4.90
2018-08-09T03:18:22.381Z,4.53
2018-08-09T03:20:52.503Z,3.90
2018-08-09T03:23:22.040Z,4.10
2018-08-09T03:25:51.701Z,4.60
2018-08-09T03:28:21.500Z,4.53
2018-08-09T03:30:51.531Z,5.00
2018-08-09T03:33:21.159Z,4.70
2018-08-09T03:35:50.822Z,5.00
2018-08-09T03:38:20.061Z,4.27
2018-08-09T03:40:50.506Z,4.57
2018-08-09T03:43:19.952Z,4.97
2018-08-09T03:45:49.688Z,4.60
2018-08-09T03:48:18.921Z,5.87
2018-08-09T03:50:48.441Z,4.90
2018-08-09T03:53:17.727Z,4.83
2018-08-09T03:55:47.030Z,5.07
2018-08-09T03:58:17.435Z,5.37
2018-08-09T04:00:48.199Z,4.90
2018-08-09T04:03:17.561Z,4.77
2018-08-09T04:05:46.857Z,4.90
2018-08-09T04:08:16.233Z,5.90
2018-08-09T04:10:46.312Z,4.53
2018-08-09T04:13:15.532Z,5.40
2018-08-09T04:15:44.936Z,5.47
2018-08-09T04:18:14.165Z,5.30
2018-08-09T04:20:43.513Z,4.60
2018-08-09T04:23:12.781Z,5.90
2018-08-09T04:25:42.033Z,5.90
2018-08-09T04:28:11.397Z,5.10
2018-08-09T04:30:40.658Z,5.40
2018-08-09T04:33:09.905Z,5.60
2018-08-09T04:35:39.458Z,4.37
2018-08-09T04:38:08.675Z,4.60
2018-08-09T04:40:37.884Z,5.30
2018-08-09T04:43:07.409Z,5.60
2018-08-09T04:45:36.817Z,4.83
2018-08-09T04:48:06.309Z,4.43
2018-08-09T04:50:36.457Z,4.07
2018-08-09T04:53:05.685Z,5.60
2018-08-09T04:55:34.954Z,5.77
2018-08-09T04:58:05.073Z,4.37
2018-08-09T05:00:34.288Z,6.00
2018-08-09T05:03:03.654Z,7.23
2018-08-09T05:05:33.559Z,5.40
2018-08-09T05:08:03.301Z,6.03
2018-08-09T05:10:32.918Z,5.87
2018-08-09T05:13:02.220Z,5.20
2018-08-09T05:15:32.479Z,5.83
2018-08-09T05:18:01.897Z,4.90
2018-08-09T05:20:32.638Z,5.90
2018-08-09T05:23:01.992Z,6.63
2018-08-09T05:25:31.320Z,6.60
2018-08-09T05:28:01.459Z,5.53
2018-08-09T05:30:30.942Z,8.20
2018-08-09T05:33:00.430Z,5.70
2018-08-09T05:35:29.758Z,5.13
2018-08-09T05:37:59.101Z,5.07
2018-08-09T05:40:28.407Z,5.40
2018-08-09T05:43:00.128Z,6.17
2018-08-09T05:45:29.455Z,6.77
2018-08-09T05:47:58.819Z,5.40
2018-08-09T05:50:28.466Z,5.40
2018-08-09T05:52:57.886Z,4.57
2018-08-09T05:55:27.260Z,5.73
2018-08-09T05:57:56.812Z,4.93
2018-08-09T06:00:26.383Z,5.13
2018-08-09T06:02:55.727Z,5.23
2018-08-09T06:05:25.312Z,4.47
2018-08-09T06:07:54.911Z,4.70
2018-08-09T06:10:24.366Z,3.43
2018-08-09T06:12:54.310Z,3.37
2018-08-09T06:15:23.662Z,3.50
2018-08-09T06:17:53.224Z,4.10
2018-08-09T06:20:23.381Z,3.70
2018-08-09T06:22:52.790Z,3.17
2018-08-09T06:25:22.584Z,3.20
2018-08-09T06:27:51.993Z,2.67
2018-08-09T06:30:22.577Z,3.40
2018-08-09T06:32:52.209Z,3.53
2018-08-09T06:35:21.861Z,3.57
2018-08-09T06:37:51.888Z,3.57
2018-08-09T06:40:21.346Z,3.80
2018-08-09T06:42:51.926Z,3.67
2018-08-09T06:45:21.602Z,2.60
2018-08-09T06:47:51.487Z,3.70
2018-08-09T06:50:21.792Z,3.47
2018-08-09T06:52:51.600Z,3.10
2018-08-09T06:55:21.948Z,2.30
2018-08-09T06:57:51.451Z,2.40
2018-08-09T07:00:21.230Z,2.73
2018-08-09T07:02:52.457Z,3.67
2018-08-09T07:05:22.606Z,2.73
2018-08-09T07:07:52.595Z,2.27
2018-08-09T07:10:22.593Z,2.70
2018-08-09T07:12:52.309Z,2.90
2018-08-09T07:15:21.795Z,2.93
2018-08-09T07:17:52.096Z,3.63
2018-08-09T07:20:21.548Z,3.17
2018-08-09T07:22:51.253Z,3.13
2018-08-09T07:25:20.787Z,3.33
2018-08-09T07:27:50.230Z,2.60
2018-08-09T07:30:19.628Z,2.90
2018-08-09T07:32:50.722Z,2.67
2018-08-09T07:35:20.113Z,3.10
2018-08-09T07:37:50.373Z,2.60
2018-08-09T07:40:19.953Z,2.60
2018-08-09T07:42:49.257Z,3.50
2018-08-09T07:45:18.832Z,2.93
2018-08-09T07:47:49.289Z,2.57
2018-08-09T07:50:18.570Z,3.20
2018-08-09T07:52:47.880Z,4.07
2018-08-09T07:55:17.353Z,3.57
2018-08-09T07:57:46.644Z,2.77
2018-08-09T08:00:17.014Z,3.23
2018-08-09T08:02:47.829Z,2.73
2018-08-09T08:05:17.082Z,3.07
2018-08-09T08:07:46.409Z,3.50
2018-08-09T08:10:15.725Z,2.50
2018-08-09T08:12:45.155Z,2.63
2018-08-09T08:15:14.453Z,2.90
2018-08-09T08:17:44.966Z,2.70
2018-08-09T08:20:14.265Z,3.10
2018-08-09T08:22:43.677Z,4.80
2018-08-09T08:25:13.145Z,3.90
2018-08-09T08:27:42.366Z,3.60
2018-08-09T08:30:13.459Z,2.97
2018-08-09T08:32:43.408Z,2.97
2018-08-09T08:35:12.809Z,3.23
2018-08-09T08:37:42.244Z,3.83
2018-08-09T08:40:13.600Z,3.23
2018-08-09T08:42:43.069Z,4.10
2018-08-09T08:45:13.840Z,3.67
2018-08-09T08:47:43.717Z,3.93
2018-08-09T08:50:13.321Z,2.90
2018-08-09T08:52:42.884Z,2.93
2018-08-09T08:55:12.785Z,2.90
2018-08-09T08:57:42.007Z,3.57
2018-08-09T09:00:12.435Z,3.10
2018-08-09T09:02:41.951Z,3.40
2018-08-09T09:05:12.649Z,3.50
2018-08-09T09:07:41.820Z,3.73
2018-08-09T09:10:12.735Z,3.73
2018-08-09T09:12:41.978Z,3.30
2018-08-09T09:15:13.712Z,4.40
2018-08-09T09:17:43.984Z,4.10
2018-08-09T09:20:16.353Z,4.27
2018-08-09T09:22:45.780Z,6.40
2018-08-09T09:25:15.083Z,6.00
2018-08-09T09:27:44.338Z,6.30
2018-08-09T09:30:15.105Z,4.20
2018-08-09T09:32:44.879Z,6.33
2018-08-09T09:35:14.386Z,8.80
2018-08-09T09:37:43.922Z,7.70
2018-08-09T09:40:13.368Z,6.57
2018-08-09T09:42:43.420Z,6.47
2018-08-09T09:45:12.759Z,6.40
2018-08-09T09:47:42.005Z,6.00
2018-08-09T09:50:12.575Z,6.87
2018-08-09T09:52:41.810Z,6.30
2018-08-09T09:55:11.137Z,8.97
2018-08-09T09:57:40.445Z,6.43
2018-08-09T10:00:15.948Z,6.67
2018-08-09T10:02:45.732Z,7.00
2018-08-09T10:05:15.370Z,6.43
2018-08-09T10:07:44.643Z,4.93
2018-08-09T10:10:13.987Z,4.00
2018-08-09T10:12:43.426Z,5.30
2018-08-09T10:15:12.936Z,3.87
2018-08-09T10:17:42.619Z,3.20
2018-08-09T10:20:11.912Z,4.03
2018-08-09T10:22:41.205Z,4.17
2018-08-09T10:25:10.815Z,4.10
2018-08-09T10:27:40.137Z,3.30
2018-08-09T10:30:09.602Z,4.67
2018-08-09T10:32:39.209Z,5.30
2018-08-09T10:35:08.613Z,4.00
2018-08-09T10:37:38.484Z,4.37
2018-08-09T10:40:08.710Z,4.50
2018-08-09T10:42:38.475Z,4.33
2018-08-09T10:45:07.797Z,3.73
2018-08-09T10:47:37.507Z,3.40
2018-08-09T10:50:07.730Z,3.77
2018-08-09T10:55:21.733Z,4.13
2018-08-09T10:57:51.453Z,3.90
2018-08-09T11:00:21.451Z,4.53
2018-08-09T11:02:53.402Z,4.07
2018-08-09T11:05:24.023Z,4.57
2018-08-09T11:07:53.561Z,3.50
2018-08-09T11:10:23.548Z,4.00
2018-08-09T11:12:53.798Z,3.73
2018-08-09T11:15:24.487Z,3.57
2018-08-09T11:17:54.299Z,4.23
2018-08-09T11:20:23.842Z,3.77
2018-08-09T11:22:53.572Z,3.50
2018-08-09T11:25:23.438Z,3.87
2018-08-09T11:27:53.318Z,4.27
2018-08-09T11:30:23.178Z,4.20
2018-08-09T11:32:53.046Z,4.33
2018-08-09T11:35:22.500Z,5.17
2018-08-09T11:37:52.493Z,3.50
2018-08-09T11:40:23.104Z,3.80
2018-08-09T11:42:52.487Z,4.17
2018-08-09T11:45:22.805Z,5.10
2018-08-09T11:47:53.284Z,4.30
2018-08-09T11:50:22.791Z,4.20
2018-08-09T11:52:52.492Z,3.90
2018-08-09T11:55:21.937Z,4.20
2018-08-09T11:57:51.305Z,4.20
2018-08-09T12:00:21.681Z,3.93
2018-08-09T12:02:51.132Z,4.77
2018-08-09T12:05:21.351Z,4.47
2018-08-09T12:07:50.778Z,4.20
2018-08-09T12:10:20.444Z,4.17
2018-08-09T12:12:50.389Z,4.20
2018-08-09T12:15:19.930Z,5.27
2018-08-09T12:17:49.308Z,4.33
2018-08-09T12:20:18.622Z,5.00
2018-08-09T12:22:48.685Z,4.60
2018-08-09T12:25:17.925Z,4.67
2018-08-09T12:27:47.262Z,4.63
2018-08-09T12:30:18.416Z,5.10
2018-08-09T12:32:47.813Z,5.27
2018-08-09T12:35:17.831Z,4.63
2018-08-09T12:37:47.293Z,4.70
2018-08-09T12:40:16.688Z,5.37
2018-08-09T12:42:46.749Z,5.00
2018-08-09T12:45:16.253Z,5.87
2018-08-09T12:47:45.640Z,5.20
2018-08-09T12:50:15.349Z,5.10
2018-08-09T12:52:45.433Z,5.43
2018-08-09T12:55:15.300Z,6.20
2018-08-09T12:57:44.672Z,4.73
2018-08-09T13:00:14.760Z,4.73
2018-08-09T13:02:43.976Z,5.67
2018-08-09T13:05:13.388Z,6.33
2018-08-09T13:07:43.278Z,6.00
2018-08-09T13:10:13.539Z,4.50
2018-08-09T13:12:42.815Z,4.70
2018-08-09T13:15:13.708Z,4.57
2018-08-09T13:17:44.573Z,4.33
2018-08-09T13:20:17.970Z,4.30
2018-08-09T13:22:49.871Z,4.90
2018-08-09T13:25:19.298Z,4.33
2018-08-09T13:27:49.067Z,4.43
2018-08-09T13:30:19.083Z,5.53
2018-08-09T13:32:48.381Z,5.10
2018-08-09T13:35:17.815Z,5.27
2018-08-09T13:37:47.234Z,6.27
2018-08-09T13:40:18.390Z,4.70
2018-08-09T13:42:47.734Z,5.13
2018-08-09T13:45:17.672Z,4.90
2018-08-09T13:47:47.007Z,16.63
2018-08-09T13:50:16.289Z,7.47
2018-08-09T13:52:46.166Z,7.53
2018-08-09T13:55:15.913Z,5.53
2018-08-09T13:57:45.497Z,7.27
2018-08-09T14:00:15.058Z,6.27
2018-08-09T14:02:45.677Z,8.43
2018-08-09T14:05:14.937Z,5.90
2018-08-09T14:07:45.335Z,6.37
2018-08-09T14:10:14.630Z,6.33
2018-08-09T14:12:44.078Z,7.13
2018-08-09T14:15:15.149Z,7.37
2018-08-09T14:17:44.473Z,6.23
2018-08-09T14:20:16.754Z,6.83
2018-08-09T14:22:46.152Z,6.37
2018-08-09T14:25:15.559Z,6.10
2018-08-09T14:27:45.389Z,5.60
2018-08-09T14:30:16.092Z,5.40
2018-08-09T14:32:47.357Z,6.40
2018-08-09T14:35:17.446Z,4.73
2018-08-09T14:37:47.896Z,5.27
2018-08-09T14:40:17.356Z,4.93
2018-08-09T14:42:47.329Z,5.17
2018-08-09T14:45:17.150Z,4.73
2018-08-09T14:47:46.641Z,4.93
2018-08-09T14:50:16.356Z,3.97
2018-08-09T14:52:45.800Z,4.10
2018-08-09T14:55:15.348Z,5.00
2018-08-09T14:57:44.686Z,4.57
2018-08-09T15:00:17.543Z,4.87
2018-08-09T15:02:50.209Z,5.50
2018-08-09T15:05:20.517Z,3.60
2018-08-09T15:07:51.048Z,5.90
2018-08-09T15:10:20.578Z,5.40
2018-08-09T15:12:49.957Z,5.47
2018-08-09T15:15:20.502Z,5.80
2018-08-09T15:17:52.676Z,5.73
2018-08-09T15:20:23.358Z,4.67
2018-08-09T15:22:53.486Z,4.70
2018-08-09T15:25:23.353Z,5.13
2018-08-09T15:27:54.048Z,4.80
2018-08-09T15:30:23.982Z,5.17
2018-08-09T15:32:53.843Z,5.03
2018-08-09T15:35:24.686Z,5.90
2018-08-09T15:37:55.878Z,5.57
2018-08-09T15:40:25.395Z,6.00
2018-08-09T15:42:54.927Z,4.50
2018-08-09T15:45:25.721Z,5.20
2018-08-09T15:47:56.287Z,4.77
2018-08-09T15:50:25.747Z,5.00
2018-08-09T15:52:55.852Z,5.70
2018-08-09T15:55:25.249Z,4.50
2018-08-09T15:57:55.352Z,5.37
2018-08-09T16:00:25.174Z,5.00
2018-08-09T16:02:55.289Z,5.67
2018-08-09T16:05:25.384Z,4.50
2018-08-09T16:07:56.954Z,5.03
2018-08-09T16:10:27.102Z,5.17
2018-08-09T16:12:56.644Z,4.47
2018-08-09T16:15:27.354Z,5.10
2018-08-09T16:17:57.157Z,6.53
2018-08-09T16:20:26.692Z,4.90
2018-08-09T16:22:57.693Z,5.23
2018-08-09T16:25:27.633Z,5.07
2018-08-09T16:27:57.215Z,5.00
2018-08-09T16:30:29.430Z,5.60
2018-08-09T16:32:58.852Z,4.70
2018-08-09T16:35:28.557Z,4.73
2018-08-09T16:37:58.662Z,5.03
2018-08-09T16:40:28.408Z,5.50
2018-08-09T16:42:58.673Z,5.20
2018-08-09T16:45:30.140Z,6.37
2018-08-09T16:47:59.996Z,5.27
2018-08-09T16:50:33.378Z,5.43
2018-08-09T16:53:04.589Z,5.93
2018-08-09T16:55:34.857Z,5.70
2018-08-09T16:58:04.906Z,5.33
2018-08-09T17:00:35.626Z,5.47
2018-08-09T17:03:05.083Z,5.07
2018-08-09T17:05:34.496Z,5.37
2018-08-09T17:08:05.288Z,5.30
2018-08-09T17:10:34.780Z,4.90
2018-08-09T17:13:04.090Z,4.90
2018-08-09T17:15:33.960Z,6.87
2018-08-09T17:18:03.307Z,4.97
2018-08-09T17:20:33.755Z,5.93
2018-08-09T17:23:04.695Z,5.03
2018-08-09T17:25:33.996Z,6.20
2018-08-09T17:28:03.395Z,6.53
2018-08-09T17:30:33.203Z,6.40
2018-08-09T17:33:03.799Z,7.40
2018-08-09T17:35:33.130Z,7.00
2018-08-09T17:38:02.592Z,6.10
2018-08-09T17:40:33.364Z,6.53
2018-08-09T17:43:04.296Z,6.17
2018-08-09T17:45:34.776Z,5.90
2018-08-09T17:48:05.813Z,6.10
2018-08-09T17:50:35.287Z,6.67
2018-08-09T17:53:07.622Z,7.23
2018-08-09T17:55:36.858Z,8.10
2018-08-09T17:58:06.347Z,6.87
2018-08-09T18:00:36.421Z,6.90
2018-08-09T18:03:06.025Z,6.50
2018-08-09T18:05:35.556Z,6.80
2018-08-09T18:08:06.741Z,6.60
2018-08-09T18:10:38.137Z,6.60
2018-08-09T18:13:07.415Z,6.73
2018-08-09T18:15:36.660Z,6.70
2018-08-09T18:18:06.257Z,7.60
2018-08-09T18:20:36.945Z,8.27
2018-08-09T18:23:06.408Z,6.80
2018-08-09T18:25:35.734Z,7.17
2018-08-09T18:28:05.597Z,8.17
2018-08-09T18:30:34.983Z,9.90
2018-08-09T18:33:04.413Z,10.60
2018-08-09T18:35:33.697Z,9.97
2018-08-09T18:38:04.308Z,12.17
2018-08-09T18:40:34.829Z,10.10
2018-08-09T18:43:04.322Z,8.17
2018-08-09T18:45:34.256Z,6.10
2018-08-09T18:48:04.709Z,4.80
2018-08-09T18:50:34.943Z,5.97
2018-08-09T18:53:04.345Z,5.60
2018-08-09T18:55:33.726Z,5.37
2018-08-09T18:58:03.697Z,5.77
2018-08-09T19:00:33.865Z,5.90
2018-08-09T19:03:03.159Z,5.70
2018-08-09T19:05:34.526Z,6.47
2018-08-09T19:08:04.199Z,5.57
2018-08-09T19:10:35.713Z,7.33
2018-08-09T19:13:05.104Z,6.63
2018-08-09T19:15:40.203Z,6.20
2018-08-09T19:18:09.559Z,6.47
2018-08-09T19:20:40.054Z,6.13
2018-08-09T19:23:09.529Z,7.30
2018-08-09T19:25:38.994Z,7.67
2018-08-09T19:28:09.877Z,7.17
2018-08-09T19:30:46.590Z,7.07
2018-08-09T19:33:16.652Z,7.67
2018-08-09T19:35:51.963Z,7.30
2018-08-09T19:38:23.426Z,6.17
2018-08-09T19:40:53.518Z,5.23
2018-08-09T19:43:24.312Z,5.37
2018-08-09T19:46:00.524Z,5.67
2018-08-09T19:48:44.917Z,5.80
2018-08-09T19:51:16.165Z,7.33
2018-08-09T19:53:45.457Z,5.37
2018-08-09T19:56:15.275Z,5.13
2018-08-09T19:58:45.295Z,6.27
2018-08-09T20:01:14.590Z,5.80
2018-08-09T20:03:45.409Z,4.50
2018-08-09T20:06:16.555Z,6.23
2018-08-09T20:08:46.761Z,5.20
2018-08-09T20:11:17.706Z,4.60
2018-08-09T20:13:47.291Z,6.13
2018-08-09T20:16:16.585Z,6.07
2018-08-09T20:18:46.121Z,7.07
2018-08-09T20:21:15.440Z,6.10
2018-08-09T20:23:46.520Z,6.90
2018-08-09T20:26:16.101Z,6.20
2018-08-09T20:28:51.037Z,7.47
2018-08-09T20:31:20.354Z,6.43
2018-08-09T20:33:50.263Z,7.30
2018-08-09T20:36:20.345Z,6.70
2018-08-09T20:38:49.988Z,6.40
2018-08-09T20:41:19.371Z,7.13
2018-08-09T20:43:50.440Z,7.63
2018-08-09T20:46:19.907Z,7.40
2018-08-09T20:48:49.499Z,7.47
2018-08-09T20:51:18.888Z,9.40
2018-08-09T20:53:48.283Z,7.63
2018-08-09T20:56:17.565Z,8.20
2018-08-09T20:58:46.951Z,7.90
2018-08-09T21:01:16.417Z,8.37
2018-08-09T21:03:45.678Z,7.67
2018-08-09T21:06:15.033Z,8.00
2018-08-09T21:08:44.454Z,8.13
2018-08-09T21:11:13.985Z,8.40
2018-08-09T21:13:43.378Z,7.93
2018-08-09T21:16:14.213Z,6.83
2018-08-09T21:18:43.453Z,8.83
2018-08-09T21:21:12.714Z,8.97
2018-08-09T21:23:42.520Z,7.70
2018-08-09T21:26:11.833Z,7.77
2018-08-09T21:28:41.078Z,8.40
2018-08-09T21:31:10.442Z,9.43
2018-08-09T21:33:39.841Z,9.17
2018-08-09T21:36:10.186Z,9.00
2018-08-09T21:46:12.119Z,8.60
2018-08-09T21:48:41.430Z,9.03
2018-08-09T21:51:11.481Z,9.40
2018-08-09T21:53:40.932Z,9.90
2018-08-09T21:56:10.392Z,8.50
2018-08-09T21:58:39.714Z,9.07
2018-08-09T22:01:09.470Z,10.00
2018-08-09T22:03:41.755Z,9.73
2018-08-09T22:06:16.646Z,9.20
2018-08-09T22:08:51.274Z,9.80
2018-08-09T22:11:25.966Z,9.17
2018-08-09T22:14:01.017Z,10.37
2018-08-09T22:16:35.779Z,10.43
2018-08-09T22:19:10.306Z,10.60
2018-08-09T22:21:44.914Z,10.13
2018-08-09T22:24:14.173Z,9.20
2018-08-09T22:26:43.449Z,10.27
2018-08-09T22:29:13.419Z,9.30
2018-08-09T22:31:42.657Z,9.43
2018-08-09T22:34:12.535Z,9.50
2018-08-09T22:36:41.921Z,9.80
2018-08-09T22:39:11.228Z,10.50
2018-08-09T22:41:40.475Z,10.67
2018-08-09T22:44:10.199Z,10.93
2018-08-09T22:46:39.648Z,11.00
2018-08-09T22:49:08.931Z,11.23
2018-08-09T22:51:39.167Z,9.60
2018-08-09T22:54:08.568Z,11.00
2018-08-09T22:56:37.837Z,10.20
2018-08-09T22:59:07.892Z,10.87
2018-08-09T23:01:37.196Z,9.93
2018-08-09T23:04:06.549Z,10.27
2018-08-09T23:06:35.868Z,10.80
2018-08-09T23:09:08.558Z,10.83
2018-08-09T23:11:38.416Z,11.13
2018-08-09T23:14:07.804Z,11.00
2018-08-09T23:16:37.160Z,11.07
2018-08-09T23:19:06.565Z,10.60
2018-08-09T23:21:35.869Z,10.50
2018-08-09T23:24:05.264Z,10.20
2018-08-09T23:26:35.948Z,10.83
2018-08-09T23:29:05.463Z,9.50
2018-08-09T23:31:34.787Z,9.60
2018-08-09T23:34:04.179Z,10.30
2018-08-09T23:36:33.542Z,10.10
2018-08-09T23:39:02.889Z,8.80
2018-08-09T23:41:33.434Z,10.50
2018-08-09T23:44:02.737Z,9.47
2018-08-09T23:46:32.093Z,9.67
2018-08-09T23:49:02.235Z,8.80
2018-08-09T23:51:31.747Z,9.60
2018-08-09T23:54:01.082Z,9.77
2018-08-09T23:56:30.965Z,10.13
2018-08-09T23:59:00.372Z,9.80
